sensor_id;sensor_type;location;lat;lon;timestamp;pressure;altitude;pressure_sealevel;temperature;humidity
47785;BME280;35233;55.686;37.848;2023-05-28T00:00:45;99741.78;;;19.55;47.03
47785;BME280;35233;55.686;37.848;2023-05-28T00:03:11;99732.78;;;19.56;46.94
47785;BME280;35233;55.686;37.848;2023-05-28T00:05:38;99732.13;;;19.53;47.03
47785;BME280;35233;55.686;37.848;2023-05-28T00:08:03;99732.13;;;19.53;46.94
47785;BME280;35233;55.686;37.848;2023-05-28T00:10:29;99726.75;;;19.53;46.79
47785;BME280;35233;55.686;37.848;2023-05-28T00:12:54;99739.31;;;19.52;47.20
47785;BME280;35233;55.686;37.848;2023-05-28T00:15:20;99728.00;;;19.47;47.29
47785;BME280;35233;55.686;37.848;2023-05-28T00:17:48;99708.59;;;19.43;47.19
47785;BME280;35233;55.686;37.848;2023-05-28T00:20:18;99730.78;;;19.45;47.05
47785;BME280;35233;55.686;37.848;2023-05-28T00:22:43;99720.44;;;19.39;46.75
47785;BME280;35233;55.686;37.848;2023-05-28T00:25:09;99736.25;;;19.44;47.17
47785;BME280;35233;55.686;37.848;2023-05-28T00:27:37;99738.47;;;19.37;46.93
47785;BME280;35233;55.686;37.848;2023-05-28T00:30:02;99724.28;;;19.35;46.90
47785;BME280;35233;55.686;37.848;2023-05-28T00:32:28;99725.06;;;19.37;46.97
47785;BME280;35233;55.686;37.848;2023-05-28T00:34:54;99726.13;;;19.35;46.94
47785;BME280;35233;55.686;37.848;2023-05-28T00:37:19;99729.84;;;19.32;46.71
47785;BME280;35233;55.686;37.848;2023-05-28T00:39:45;99724.50;;;19.32;47.04
47785;BME280;35233;55.686;37.848;2023-05-28T00:42:10;99718.34;;;19.30;46.99
47785;BME280;35233;55.686;37.848;2023-05-28T00:44:37;99715.69;;;19.30;47.29
47785;BME280;35233;55.686;37.848;2023-05-28T00:47:06;99720.19;;;19.30;47.36
47785;BME280;35233;55.686;37.848;2023-05-28T00:49:33;99723.72;;;19.30;47.42
47785;BME280;35233;55.686;37.848;2023-05-28T00:51:59;99722.00;;;19.29;47.27
47785;BME280;35233;55.686;37.848;2023-05-28T00:54:26;99720.25;;;19.28;47.50
47785;BME280;35233;55.686;37.848;2023-05-28T00:56:53;99717.78;;;19.25;47.55
47785;BME280;35233;55.686;37.848;2023-05-28T00:59:20;99717.78;;;19.25;47.59
47785;BME280;35233;55.686;37.848;2023-05-28T01:01:47;99715.28;;;19.22;47.52
47785;BME280;35233;55.686;37.848;2023-05-28T01:04:13;99723.31;;;19.22;47.45
47785;BME280;35233;55.686;37.848;2023-05-28T01:06:39;99718.94;;;19.21;47.64
47785;BME280;35233;55.686;37.848;2023-05-28T01:09:06;99715.41;;;19.20;47.83
47785;BME280;35233;55.686;37.848;2023-05-28T01:11:32;99719.91;;;19.20;47.48
47785;BME280;35233;55.686;37.848;2023-05-28T01:13:59;99729.72;;;19.19;47.85
47785;BME280;35233;55.686;37.848;2023-05-28T01:16:25;99721.81;;;19.18;48.04
47785;BME280;35233;55.686;37.848;2023-05-28T01:18:54;99721.91;;;19.16;47.70
47785;BME280;35233;55.686;37.848;2023-05-28T01:21:21;99726.31;;;19.17;47.90
47785;BME280;35233;55.686;37.848;2023-05-28T01:23:47;99729.06;;;19.16;47.75
47785;BME280;35233;55.686;37.848;2023-05-28T01:26:14;99728.31;;;19.14;47.78
47785;BME280;35233;55.686;37.848;2023-05-28T01:28:46;99723.84;;;19.14;47.68
47785;BME280;35233;55.686;37.848;2023-05-28T01:31:15;99731.94;;;19.13;47.67
47785;BME280;35233;55.686;37.848;2023-05-28T01:33:42;99726.78;;;19.10;47.80
47785;BME280;35233;55.686;37.848;2023-05-28T01:36:22;99725.81;;;19.11;47.75
47785;BME280;35233;55.686;37.848;2023-05-28T01:38:49;99732.13;;;19.10;47.87
47785;BME280;35233;55.686;37.848;2023-05-28T01:41:18;99724.50;;;19.04;48.05
47785;BME280;35233;55.686;37.848;2023-05-28T01:43:44;99742.06;;;19.08;47.92
47785;BME280;35233;55.686;37.848;2023-05-28T01:46:11;99730.91;;;19.01;48.00
47785;BME280;35233;55.686;37.848;2023-05-28T01:48:37;99738.72;;;19.04;48.08
47785;BME280;35233;55.686;37.848;2023-05-28T01:51:03;99735.19;;;19.04;47.97
47785;BME280;35233;55.686;37.848;2023-05-28T01:53:29;99736.16;;;19.03;48.14
47785;BME280;35233;55.686;37.848;2023-05-28T01:55:54;99742.25;;;19.05;47.97
47785;BME280;35233;55.686;37.848;2023-05-28T01:58:22;99741.53;;;19.03;48.29
47785;BME280;35233;55.686;37.848;2023-05-28T02:00:59;99729.25;;;18.98;48.09
47785;BME280;35233;55.686;37.848;2023-05-28T02:03:27;99737.22;;;19.00;48.00
47785;BME280;35233;55.686;37.848;2023-05-28T02:05:53;99730.03;;;19.00;48.12
47785;BME280;35233;55.686;37.848;2023-05-28T02:08:18;99728.47;;;18.96;48.31
47785;BME280;35233;55.686;37.848;2023-05-28T02:10:44;99721.16;;;19.00;47.80
47785;BME280;35233;55.686;37.848;2023-05-28T02:13:09;99725.72;;;18.98;47.86
47785;BME280;35233;55.686;37.848;2023-05-28T02:15:35;99733.69;;;18.99;47.76
47785;BME280;35233;55.686;37.848;2023-05-28T02:18:01;99738.25;;;18.97;47.92
47785;BME280;35233;55.686;37.848;2023-05-28T02:20:26;99746.97;;;19.01;47.60
47785;BME280;35233;55.686;37.848;2023-05-28T02:22:52;99745.91;;;19.04;47.53
47785;BME280;35233;55.686;37.848;2023-05-28T02:25:17;99719.59;;;18.96;47.55
47785;BME280;35233;55.686;37.848;2023-05-28T02:27:43;99728.31;;;18.99;47.62
47785;BME280;35233;55.686;37.848;2023-05-28T02:30:08;99729.06;;;19.02;47.75
47785;BME280;35233;55.686;37.848;2023-05-28T02:32:35;99745.06;;;19.03;47.68
47785;BME280;35233;55.686;37.848;2023-05-28T02:35:01;99728.31;;;18.99;47.96
47785;BME280;35233;55.686;37.848;2023-05-28T02:37:27;99731.56;;;19.05;47.44
47785;BME280;35233;55.686;37.848;2023-05-28T02:39:52;99734.53;;;19.00;47.69
47785;BME280;35233;55.686;37.848;2023-05-28T02:42:18;99736.91;;;19.05;47.32
47785;BME280;35233;55.686;37.848;2023-05-28T02:44:43;99744.09;;;19.04;47.04
47785;BME280;35233;55.686;37.848;2023-05-28T02:47:09;99750.09;;;19.08;46.87
47785;BME280;35233;55.686;37.848;2023-05-28T02:49:34;99745.91;;;19.04;46.77
47785;BME280;35233;55.686;37.848;2023-05-28T02:52:00;99739.69;;;19.03;46.87
47785;BME280;35233;55.686;37.848;2023-05-28T02:54:25;99754.72;;;19.06;46.72
47785;BME280;35233;55.686;37.848;2023-05-28T02:56:51;99746.69;;;19.06;46.64
47785;BME280;35233;55.686;37.848;2023-05-28T02:59:17;99751.47;;;19.00;46.67
47785;BME280;35233;55.686;37.848;2023-05-28T03:01:42;99761.97;;;19.04;46.90
47785;BME280;35233;55.686;37.848;2023-05-28T03:04:08;99760.25;;;19.03;46.78
47785;BME280;35233;55.686;37.848;2023-05-28T03:06:33;99763.88;;;19.02;47.04
47785;BME280;35233;55.686;37.848;2023-05-28T03:08:59;99763.88;;;19.02;46.96
47785;BME280;35233;55.686;37.848;2023-05-28T03:11:25;99767.34;;;19.04;47.28
47785;BME280;35233;55.686;37.848;2023-05-28T03:13:50;99760.34;;;19.01;47.42
47785;BME280;35233;55.686;37.848;2023-05-28T03:16:16;99760.34;;;19.01;46.61
47785;BME280;35233;55.686;37.848;2023-05-28T03:18:41;99755.97;;;19.00;46.89
47785;BME280;35233;55.686;37.848;2023-05-28T03:21:07;99762.06;;;19.02;47.00
47785;BME280;35233;55.686;37.848;2023-05-28T03:23:32;99760.94;;;19.06;46.89
47785;BME280;35233;55.686;37.848;2023-05-28T03:25:57;99763.50;;;19.08;46.69
47785;BME280;35233;55.686;37.848;2023-05-28T03:28:23;99765.13;;;19.10;46.78
47785;BME280;35233;55.686;37.848;2023-05-28T03:30:48;99762.38;;;19.12;46.86
47785;BME280;35233;55.686;37.848;2023-05-28T03:33:14;99758.84;;;19.11;47.02
47785;BME280;35233;55.686;37.848;2023-05-28T03:35:39;99757.88;;;19.12;46.92
47785;BME280;35233;55.686;37.848;2023-05-28T03:38:05;99764.66;;;19.18;46.71
47785;BME280;35233;55.686;37.848;2023-05-28T03:40:30;99762.75;;;19.20;46.39
47785;BME280;35233;55.686;37.848;2023-05-28T03:42:56;99757.22;;;19.23;46.69
47785;BME280;35233;55.686;37.848;2023-05-28T03:45:21;99756.25;;;19.24;46.45
47785;BME280;35233;55.686;37.848;2023-05-28T03:47:47;99758.34;;;19.33;46.35
47785;BME280;35233;55.686;37.848;2023-05-28T03:50:12;99762.19;;;19.29;46.06
47785;BME280;35233;55.686;37.848;2023-05-28T03:52:38;99766.56;;;19.30;45.95
47785;BME280;35233;55.686;37.848;2023-05-28T03:55:03;99767.34;;;19.32;45.80
47785;BME280;35233;55.686;37.848;2023-05-28T03:57:29;99770.50;;;19.25;45.95
47785;BME280;35233;55.686;37.848;2023-05-28T03:59:55;99775.00;;;19.24;46.11
47785;BME280;35233;55.686;37.848;2023-05-28T04:02:23;99783.22;;;19.21;46.43
47785;BME280;35233;55.686;37.848;2023-05-28T04:04:49;99777.09;;;19.19;46.32
47785;BME280;35233;55.686;37.848;2023-05-28T04:07:14;99779.03;;;19.17;46.67
47785;BME280;35233;55.686;37.848;2023-05-28T04:09:40;99778.13;;;19.16;46.71
47785;BME280;35233;55.686;37.848;2023-05-28T04:12:06;99775.19;;;19.21;46.56
47785;BME280;35233;55.686;37.848;2023-05-28T04:14:31;99781.41;;;19.21;46.26
47785;BME280;35233;55.686;37.848;2023-05-28T04:16:57;99785.50;;;19.27;46.52
47785;BME280;35233;55.686;37.848;2023-05-28T04:19:23;99775.78;;;19.26;46.10
47785;BME280;35233;55.686;37.848;2023-05-28T04:21:48;99770.22;;;19.29;46.04
47785;BME280;35233;55.686;37.848;2023-05-28T04:24:14;99761.78;;;19.35;46.10
47785;BME280;35233;55.686;37.848;2023-05-28T04:26:39;99757.22;;;19.37;46.04
47785;BME280;35233;55.686;37.848;2023-05-28T04:29:05;99777.28;;;19.44;45.79
47785;BME280;35233;55.686;37.848;2023-05-28T04:31:31;99771.25;;;19.41;46.10
47785;BME280;35233;55.686;37.848;2023-05-28T04:33:57;99779.00;;;19.45;45.93
47785;BME280;35233;55.686;37.848;2023-05-28T04:36:22;99780.75;;;19.32;46.58
47785;BME280;35233;55.686;37.848;2023-05-28T04:38:57;99773.28;;;19.23;46.69
47785;BME280;35233;55.686;37.848;2023-05-28T04:41:26;99765.44;;;19.20;46.66
47785;BME280;35233;55.686;37.848;2023-05-28T04:43:52;99773.28;;;19.23;46.79
47785;BME280;35233;55.686;37.848;2023-05-28T04:46:17;99779.03;;;19.17;46.90
47785;BME280;35233;55.686;37.848;2023-05-28T04:48:43;99780.16;;;19.13;46.65
47785;BME280;35233;55.686;37.848;2023-05-28T04:51:09;99790.19;;;19.09;47.03
47785;BME280;35233;55.686;37.848;2023-05-28T04:53:34;99777.19;;;19.03;46.96
47785;BME280;35233;55.686;37.848;2023-05-28T04:56:37;99778.63;;;19.09;46.97
47785;BME280;35233;55.686;37.848;2023-05-28T04:59:03;99789.34;;;19.09;47.13
47785;BME280;35233;55.686;37.848;2023-05-28T05:01:31;99777.94;;;19.05;47.14
47785;BME280;35233;55.686;37.848;2023-05-28T05:03:58;99788.09;;;19.14;46.90
47785;BME280;35233;55.686;37.848;2023-05-28T05:06:24;99774.41;;;19.05;46.91
47785;BME280;35233;55.686;37.848;2023-05-28T05:08:50;99779.38;;;19.11;46.78
47785;BME280;35233;55.686;37.848;2023-05-28T05:11:15;99781.56;;;19.04;47.08
47785;BME280;35233;55.686;37.848;2023-05-28T05:13:41;99778.22;;;19.00;47.18
47785;BME280;35233;55.686;37.848;2023-05-28T05:16:06;99788.75;;;19.04;47.25
47785;BME280;35233;55.686;37.848;2023-05-28T05:18:32;99777.25;;;19.02;47.12
47785;BME280;35233;55.686;37.848;2023-05-28T05:21:17;99787.72;;;19.06;47.10
47785;BME280;35233;55.686;37.848;2023-05-28T05:23:43;99783.22;;;19.07;47.09
47785;BME280;35233;55.686;37.848;2023-05-28T05:28:52;99794.19;;;19.16;46.92
47785;BME280;35233;55.686;37.848;2023-05-28T05:31:18;99800.44;;;19.17;46.73
47785;BME280;35233;55.686;37.848;2023-05-28T05:33:43;99804.34;;;19.11;46.85
47785;BME280;35233;55.686;37.848;2023-05-28T05:36:09;99805.03;;;19.15;46.60
47785;BME280;35233;55.686;37.848;2023-05-28T05:38:36;99803.59;;;19.23;46.73
47785;BME280;35233;55.686;37.848;2023-05-28T05:41:02;99793.28;;;19.32;46.52
47785;BME280;35233;55.686;37.848;2023-05-28T05:43:28;99786.56;;;19.39;46.32
47785;BME280;35233;55.686;37.848;2023-05-28T05:45:53;99792.13;;;19.50;45.99
47785;BME280;35233;55.686;37.848;2023-05-28T05:48:19;99804.06;;;19.44;46.26
47785;BME280;35233;55.686;37.848;2023-05-28T05:50:51;99802.44;;;19.28;46.71
47785;BME280;35233;55.686;37.848;2023-05-28T05:53:41;99811.50;;;19.11;47.37
47785;BME280;35233;55.686;37.848;2023-05-28T05:56:08;99805.38;;;18.94;47.38
47785;BME280;35233;55.686;37.848;2023-05-28T05:58:34;99819.69;;;18.93;47.47
47785;BME280;35233;55.686;37.848;2023-05-28T06:00:59;99813.66;;;18.90;47.62
47785;BME280;35233;55.686;37.848;2023-05-28T06:03:25;99817.19;;;18.90;47.62
47785;BME280;35233;55.686;37.848;2023-05-28T06:05:52;99818.16;;;18.89;47.82
47785;BME280;35233;55.686;37.848;2023-05-28T06:08:18;99817.31;;;18.89;47.55
47785;BME280;35233;55.686;37.848;2023-05-28T06:10:45;99817.19;;;18.90;47.36
47785;BME280;35233;55.686;37.848;2023-05-28T06:13:13;99813.00;;;18.86;47.75
47785;BME280;35233;55.686;37.848;2023-05-28T06:15:39;99815.56;;;18.88;47.88
47785;BME280;35233;55.686;37.848;2023-05-28T06:18:05;99813.59;;;18.91;47.52
47785;BME280;35233;55.686;37.848;2023-05-28T06:20:31;99816.56;;;19.01;47.21
47785;BME280;35233;55.686;37.848;2023-05-28T06:22:56;99807.13;;;19.10;46.86
47785;BME280;35233;55.686;37.848;2023-05-28T06:25:22;99820.59;;;19.22;46.76
47785;BME280;35233;55.686;37.848;2023-05-28T06:27:48;99826.47;;;19.29;46.69
47785;BME280;35233;55.686;37.848;2023-05-28T06:30:13;99824.91;;;19.25;46.94
47785;BME280;35233;55.686;37.848;2023-05-28T06:32:40;99822.44;;;19.22;47.09
47785;BME280;35233;55.686;37.848;2023-05-28T06:35:06;99821.88;;;19.17;47.63
47785;BME280;35233;55.686;37.848;2023-05-28T06:37:33;99821.75;;;19.18;47.08
47785;BME280;35233;55.686;37.848;2023-05-28T06:39:58;99830.09;;;19.28;46.99
47785;BME280;35233;55.686;37.848;2023-05-28T06:42:24;99823.88;;;19.28;47.10
47785;BME280;35233;55.686;37.848;2023-05-28T06:44:49;99839.75;;;19.31;46.90
47785;BME280;35233;55.686;37.848;2023-05-28T06:47:15;99835.44;;;19.28;47.03
47785;BME280;35233;55.686;37.848;2023-05-28T06:49:40;99837.44;;;19.25;47.52
47785;BME280;35233;55.686;37.848;2023-05-28T06:52:06;99838.69;;;19.33;47.06
47785;BME280;35233;55.686;37.848;2023-05-28T06:54:32;99831.25;;;19.38;46.95
47785;BME280;35233;55.686;37.848;2023-05-28T06:56:57;99837.41;;;19.55;46.64
47785;BME280;35233;55.686;37.848;2023-05-28T06:59:23;99830.88;;;19.59;46.55
47785;BME280;35233;55.686;37.848;2023-05-28T07:01:48;99824.75;;;19.57;46.53
47785;BME280;35233;55.686;37.848;2023-05-28T07:04:14;99833.56;;;19.59;46.20
47785;BME280;35233;55.686;37.848;2023-05-28T07:06:39;99832.59;;;19.45;46.64
47785;BME280;35233;55.686;37.848;2023-05-28T07:09:06;99830.78;;;19.32;46.61
47785;BME280;35233;55.686;37.848;2023-05-28T07:11:31;99838.41;;;19.23;47.12
47785;BME280;35233;55.686;37.848;2023-05-28T07:13:57;99831.69;;;19.16;47.04
47785;BME280;35233;55.686;37.848;2023-05-28T07:16:22;99836.56;;;19.10;47.45
47785;BME280;35233;55.686;37.848;2023-05-28T07:18:48;99841.25;;;19.06;47.78
47785;BME280;35233;55.686;37.848;2023-05-28T07:21:13;99846.88;;;19.02;47.80
47785;BME280;35233;55.686;37.848;2023-05-28T07:23:39;99842.31;;;19.04;47.44
47785;BME280;35233;55.686;37.848;2023-05-28T07:26:05;99843.63;;;19.11;47.62
47785;BME280;35233;55.686;37.848;2023-05-28T07:28:30;99845.00;;;19.18;47.20
47785;BME280;35233;55.686;37.848;2023-05-28T07:30:56;99845.59;;;19.23;47.31
47785;BME280;35233;55.686;37.848;2023-05-28T07:33:22;99845.78;;;19.34;46.96
47785;BME280;35233;55.686;37.848;2023-05-28T07:35:47;99851.91;;;19.51;46.59
47785;BME280;35233;55.686;37.848;2023-05-28T07:38:12;99840.22;;;19.52;46.63
47785;BME280;35233;55.686;37.848;2023-05-28T07:40:42;99842.25;;;19.48;46.76
47785;BME280;35233;55.686;37.848;2023-05-28T07:43:10;99842.38;;;19.47;46.71
47785;BME280;35233;55.686;37.848;2023-05-28T07:45:36;99845.78;;;19.49;46.75
47785;BME280;35233;55.686;37.848;2023-05-28T07:48:01;99836.41;;;19.41;46.87
47785;BME280;35233;55.686;37.848;2023-05-28T07:50:30;99834.50;;;19.43;46.69
47785;BME280;35233;55.686;37.848;2023-05-28T07:52:56;99845.03;;;19.47;46.91
47785;BME280;35233;55.686;37.848;2023-05-28T07:55:21;99839.50;;;19.50;46.70
47785;BME280;35233;55.686;37.848;2023-05-28T07:57:49;99832.31;;;19.50;46.78
47785;BME280;35233;55.686;37.848;2023-05-28T08:00:15;99840.06;;;19.55;46.72
47785;BME280;35233;55.686;37.848;2023-05-28T08:02:44;99845.03;;;19.61;46.83
47785;BME280;35233;55.686;37.848;2023-05-28T08:05:10;99837.00;;;19.61;46.46
47785;BME280;35233;55.686;37.848;2023-05-28T08:07:36;99844.56;;;19.68;46.61
47785;BME280;35233;55.686;37.848;2023-05-28T08:10:03;99852.88;;;19.64;46.45
47785;BME280;35233;55.686;37.848;2023-05-28T08:12:29;99851.16;;;19.63;46.54
47785;BME280;35233;55.686;37.848;2023-05-28T08:14:55;99850.47;;;19.59;46.88
47785;BME280;35233;55.686;37.848;2023-05-28T08:17:21;99853.81;;;19.63;46.87
47785;BME280;35233;55.686;37.848;2023-05-28T08:19:49;99854.56;;;19.66;46.62
47785;BME280;35233;55.686;37.848;2023-05-28T08:22:15;99857.91;;;19.70;46.54
47785;BME280;35233;55.686;37.848;2023-05-28T08:24:41;99868.69;;;19.68;46.83
47785;BME280;35233;55.686;37.848;2023-05-28T08:27:06;99864.31;;;19.67;46.64
47785;BME280;35233;55.686;37.848;2023-05-28T08:29:32;99866.88;;;19.69;46.69
47785;BME280;35233;55.686;37.848;2023-05-28T08:31:58;99873.78;;;19.73;46.64
47785;BME280;35233;55.686;37.848;2023-05-28T08:34:24;99875.50;;;19.74;46.76
47785;BME280;35233;55.686;37.848;2023-05-28T08:36:50;99875.97;;;19.81;46.40
47785;BME280;35233;55.686;37.848;2023-05-28T08:39:16;99882.56;;;19.89;46.49
47785;BME280;35233;55.686;37.848;2023-05-28T08:41:43;99875.75;;;19.98;46.44
47785;BME280;35233;55.686;37.848;2023-05-28T08:44:09;99873.78;;;20.02;46.15
47785;BME280;35233;55.686;37.848;2023-05-28T08:46:35;99868.59;;;20.13;46.18
47785;BME280;35233;55.686;37.848;2023-05-28T08:49:20;99865.66;;;20.30;45.97
47785;BME280;35233;55.686;37.848;2023-05-28T08:51:49;99858.44;;;20.45;45.08
47785;BME280;35233;55.686;37.848;2023-05-28T08:54:18;99854.31;;;20.54;45.13
47785;BME280;35233;55.686;37.848;2023-05-28T08:56:44;99855.63;;;20.61;45.41
47785;BME280;35233;55.686;37.848;2023-05-28T08:59:09;99858.09;;;20.64;45.34
47785;BME280;35233;55.686;37.848;2023-05-28T09:01:38;99860.38;;;20.70;44.96
47785;BME280;35233;55.686;37.848;2023-05-28T09:04:04;99864.59;;;20.74;45.21
47785;BME280;35233;55.686;37.848;2023-05-28T09:06:30;99864.66;;;20.73;44.75
47785;BME280;35233;55.686;37.848;2023-05-28T09:08:57;99859.31;;;20.73;45.05
47785;BME280;35233;55.686;37.848;2023-05-28T09:11:23;99866.66;;;20.84;44.40
47785;BME280;35233;55.686;37.848;2023-05-28T09:13:48;99860.66;;;20.93;44.96
47785;BME280;35233;55.686;37.848;2023-05-28T09:16:21;99864.09;;;20.95;44.67
47785;BME280;35233;55.686;37.848;2023-05-28T09:18:52;99867.72;;;20.94;44.96
47785;BME280;35233;55.686;37.848;2023-05-28T09:21:27;99860.66;;;20.93;44.77
47785;BME280;35233;55.686;37.848;2023-05-28T09:23:53;99866.03;;;21.06;44.33
47785;BME280;35233;55.686;37.848;2023-05-28T09:26:18;99856.38;;;21.16;44.03
47785;BME280;35233;55.686;37.848;2023-05-28T09:28:49;99864.44;;;21.29;43.91
47785;BME280;35233;55.686;37.848;2023-05-28T09:31:18;99879.75;;;21.41;43.75
47785;BME280;35233;55.686;37.848;2023-05-28T09:33:47;99878.38;;;21.48;43.60
47785;BME280;35233;55.686;37.848;2023-05-28T09:36:15;99877.31;;;21.51;43.81
47785;BME280;35233;55.686;37.848;2023-05-28T09:38:42;99879.88;;;21.52;43.69
47785;BME280;35233;55.686;37.848;2023-05-28T09:41:21;99880.06;;;21.49;43.56
47785;BME280;35233;55.686;37.848;2023-05-28T09:43:58;99884.94;;;21.44;43.94
47785;BME280;35233;55.686;37.848;2023-05-28T09:46:31;99883.25;;;21.29;43.65
47785;BME280;35233;55.686;37.848;2023-05-28T09:48:58;99882.41;;;21.15;43.90
47785;BME280;35233;55.686;37.848;2023-05-28T09:51:28;99881.50;;;21.02;44.10
47785;BME280;35233;55.686;37.848;2023-05-28T09:53:59;99873.00;;;20.95;44.30
47785;BME280;35233;55.686;37.848;2023-05-28T09:56:29;99873.66;;;20.99;44.53
47785;BME280;35233;55.686;37.848;2023-05-28T09:58:58;99871.72;;;21.01;44.37
47785;BME280;35233;55.686;37.848;2023-05-28T10:01:25;99869.25;;;20.98;44.23
47785;BME280;35233;55.686;37.848;2023-05-28T10:04:00;99861.53;;;21.06;44.01
47785;BME280;35233;55.686;37.848;2023-05-28T10:06:27;99865.59;;;20.99;44.21
47785;BME280;35233;55.686;37.848;2023-05-28T10:08:54;99849.13;;;20.91;44.37
47785;BME280;35233;55.686;37.848;2023-05-28T10:11:30;99859.03;;;20.90;44.30
47785;BME280;35233;55.686;37.848;2023-05-28T10:13:59;99860.84;;;20.90;44.53
47785;BME280;35233;55.686;37.848;2023-05-28T10:16:25;99860.66;;;20.93;44.80
47785;BME280;35233;55.686;37.848;2023-05-28T10:18:53;99858.16;;;20.90;44.54
47785;BME280;35233;55.686;37.848;2023-05-28T10:21:19;99856.00;;;20.82;45.05
47785;BME280;35233;55.686;37.848;2023-05-28T10:23:46;99845.59;;;20.77;45.03
47785;BME280;35233;55.686;37.848;2023-05-28T10:26:13;99847.50;;;20.75;44.53
47785;BME280;35233;55.686;37.848;2023-05-28T10:28:40;99844.25;;;20.70;45.01
47785;BME280;35233;55.686;37.848;2023-05-28T10:31:08;99853.44;;;20.80;44.58
47785;BME280;35233;55.686;37.848;2023-05-28T10:33:42;99847.31;;;20.91;44.30
47785;BME280;35233;55.686;37.848;2023-05-28T10:36:10;99850.34;;;20.99;44.27
47785;BME280;35233;55.686;37.848;2023-05-28T10:41:18;99840.91;;;21.19;43.94
47785;BME280;35233;55.686;37.848;2023-05-28T10:43:45;99828.97;;;21.11;44.19
47785;BME280;35233;55.686;37.848;2023-05-28T10:49:05;99838.53;;;21.02;43.97
47785;BME280;35233;55.686;37.848;2023-05-28T10:51:51;99841.28;;;20.88;44.74
47785;BME280;35233;55.686;37.848;2023-05-28T10:57:14;99841.75;;;21.07;44.18
47785;BME280;35233;55.686;37.848;2023-05-28T11:02:24;99832.19;;;21.03;44.14
47785;BME280;35233;55.686;37.848;2023-05-28T11:04:52;99836.19;;;20.97;44.40
47785;BME280;35233;55.686;37.848;2023-05-28T11:07:18;99834.13;;;21.01;44.19
47785;BME280;35233;55.686;37.848;2023-05-28T11:09:51;99836.19;;;21.10;44.14
47785;BME280;35233;55.686;37.848;2023-05-28T11:12:20;99845.75;;;21.27;43.63
47785;BME280;35233;55.686;37.848;2023-05-28T11:14:45;99831.34;;;21.28;43.45
47785;BME280;35233;55.686;37.848;2023-05-28T11:17:12;99842.53;;;21.22;43.89
47785;BME280;35233;55.686;37.848;2023-05-28T11:19:45;99838.66;;;21.13;44.13
47785;BME280;35233;55.686;37.848;2023-05-28T11:22:12;99830.59;;;21.00;44.01
47785;BME280;35233;55.686;37.848;2023-05-28T11:24:58;99828.97;;;21.11;44.22
47785;BME280;35233;55.686;37.848;2023-05-28T11:27:28;99829.31;;;21.06;43.99
47785;BME280;35233;55.686;37.848;2023-05-28T11:29:56;99818.34;;;21.09;43.95
47785;BME280;35233;55.686;37.848;2023-05-28T11:32:22;99831.00;;;21.20;43.92
47785;BME280;35233;55.686;37.848;2023-05-28T11:34:49;99821.25;;;21.19;44.00
47785;BME280;35233;55.686;37.848;2023-05-28T11:37:15;99828.00;;;21.12;44.05
47785;BME280;35233;55.686;37.848;2023-05-28T11:39:48;99825.84;;;21.17;44.05
47785;BME280;35233;55.686;37.848;2023-05-28T11:42:15;99840.16;;;21.17;43.99
47785;BME280;35233;55.686;37.848;2023-05-28T11:44:47;99841.56;;;21.10;44.26
47785;BME280;35233;55.686;37.848;2023-05-28T11:47:14;99841.13;;;21.16;44.30
47785;BME280;35233;55.686;37.848;2023-05-28T11:49:42;99831.69;;;21.23;43.89
47785;BME280;35233;55.686;37.848;2023-05-28T11:52:15;99829.50;;;21.29;43.94
47785;BME280;35233;55.686;37.848;2023-05-28T11:54:43;99826.09;;;21.27;44.31
47785;BME280;35233;55.686;37.848;2023-05-28T11:57:10;99832.31;;;21.27;44.11
47785;BME280;35233;55.686;37.848;2023-05-28T11:59:36;99835.22;;;21.24;44.03
47785;BME280;35233;55.686;37.848;2023-05-28T12:02:16;99840.25;;;21.29;43.51
47785;BME280;35233;55.686;37.848;2023-05-28T12:05:02;99841.78;;;21.33;43.67
47785;BME280;35233;55.686;37.848;2023-05-28T12:07:32;99832.00;;;21.32;44.03
47785;BME280;35233;55.686;37.848;2023-05-28T12:10:09;99826.75;;;21.43;43.31
47785;BME280;35233;55.686;37.848;2023-05-28T12:12:39;99830.81;;;21.36;43.81
47785;BME280;35233;55.686;37.848;2023-05-28T12:15:05;99822.91;;;21.47;43.51
47785;BME280;35233;55.686;37.848;2023-05-28T12:17:39;99817.59;;;21.58;43.04
47785;BME280;35233;55.686;37.848;2023-05-28T12:22:41;99817.91;;;21.28;44.02
47785;BME280;35233;55.686;37.848;2023-05-28T12:25:07;99824.75;;;20.94;44.03
47785;BME280;35233;55.686;37.848;2023-05-28T12:27:33;99860.47;;;20.69;44.50
47785;BME280;35233;55.686;37.848;2023-05-28T12:29:59;99852.56;;;20.53;45.13
47785;BME280;35233;55.686;37.848;2023-05-28T12:32:25;99873.84;;;20.42;44.80
47785;BME280;35233;55.686;37.848;2023-05-28T12:34:52;99894.00;;;20.34;44.67
47785;BME280;35233;55.686;37.848;2023-05-28T12:37:19;99902.16;;;20.19;45.22
47785;BME280;35233;55.686;37.848;2023-05-28T12:39:45;99911.13;;;20.05;45.82
47785;BME280;35233;55.686;37.848;2023-05-28T12:42:11;99917.13;;;20.08;45.71
47785;BME280;35233;55.686;37.848;2023-05-28T12:44:36;99913.88;;;20.18;45.55
47785;BME280;35233;55.686;37.848;2023-05-28T12:47:02;99891.06;;;20.25;45.90
47785;BME280;35233;55.686;37.848;2023-05-28T12:49:27;99893.25;;;20.32;45.73
47785;BME280;35233;55.686;37.848;2023-05-28T12:51:53;99885.97;;;20.34;45.96
47785;BME280;35233;55.686;37.848;2023-05-28T12:54:18;99873.13;;;20.40;46.05
47785;BME280;35233;55.686;37.848;2023-05-28T12:56:44;99879.50;;;20.51;45.76
47785;BME280;35233;55.686;37.848;2023-05-28T12:59:20;99876.88;;;20.64;46.16
47785;BME280;35233;55.686;37.848;2023-05-28T13:01:48;99871.38;;;20.80;45.58
47785;BME280;35233;55.686;37.848;2023-05-28T13:04:14;99867.50;;;20.97;45.33
47785;BME280;35233;55.686;37.848;2023-05-28T13:06:40;99863.91;;;21.11;44.99